メインページ
METAR-TAF:

METAR-TAF

空港 :

ニューオーリンズ, ルイジアナ州, アメリカ合衆国

ルイ・アームストロング・ニューオーリンズ国際空港

緯度: 29-59-34N, 経度: 090-15-03W, 海抜: 1m

現時点の気象観測

当レポートは12分前の13:09(UTC)に作成
北東の風 6kt
気温 26°C
湿度 79%
気圧 1013 hPa
視程: 16.1km
高度1300ftの雲はほとんどない
高度2300ftの雲は散在している
高度25000ftの雲は散在している

METAR: KMSY 251309Z 05006KT 10SM FEW013 SCT023 SCT250 26/22 A2992 RMK AO2 T02610222

時間: 08:21 (13:21 UTC)

予報

当レポートは1時間41分前の11:40(UTC)に作成
予報は25日の 12時(UTC)から 26日の 12時(UTC)まで有効
北東の風 5kt
視程: 10km
高度2500ftの雲はほとんどない
高度25000ftの雲は散在している
25日の 1600時(UTC)から
東/北東の風 7kt
視程: 10km
高度3500ftの雲は散在している
高度9000ftの千切れ雲あり
近辺でにわか雨
26日の 0100時(UTC)から
の風 5kt
視程: 10km
高度3500ftの雲はほとんどない
高度10000ftの雲は散在している

TAF: KMSY 251140Z 2512/2612 05005KT P6SM FEW025 SCT250 FM251600 06007KT P6SM VCSH SCT035 BKN090 FM260100 08005KT P6SM FEW035 SCT100

4,000以上の空港の気象観測と天気予報(METAR報とTAF報)

利用可能な観測所は地図上に黄色い丸と赤い丸で示す。

丸の上にカーソルを重ねると観測所名を参照できる。

次にクリックすると気象観測と天気予報を参照できる。

マップの切り替え:黒色「×」印の緑ボタンをクリックして拡大、「-」印の緑ボタンをクリックして縮小、緑色の三角印をクリックして隣りの地図に切り替え


METAR-TAF: